createdAt,value
2022-11-11T05:30:32.459Z,99.99
2022-11-11T05:31:32.205Z,99.99
2022-11-11T05:32:32.185Z,99.99
2022-11-11T05:33:32.202Z,99.99
2022-11-11T05:34:32.157Z,99.99
2022-11-11T05:35:32.180Z,99.99
2022-11-11T05:36:32.164Z,99.99
2022-11-11T05:37:32.124Z,99.99
2022-11-11T05:38:32.119Z,99.99
2022-11-11T05:39:32.133Z,99.99
2022-11-11T05:40:32.105Z,99.99
2022-11-11T05:41:32.138Z,99.99
2022-11-11T05:42:32.099Z,99.99
2022-11-11T05:43:32.084Z,99.99
2022-11-11T05:44:32.046Z,99.99
2022-11-11T05:45:32.128Z,99.99
2022-11-11T05:46:32.136Z,99.99
2022-11-11T05:47:32.038Z,99.99
2022-11-11T05:48:32.036Z,99.99
2022-11-11T05:49:32.005Z,99.99
2022-11-11T05:50:31.981Z,99.87
2022-11-11T05:51:36.797Z,99.99
2022-11-11T05:52:31.963Z,99.99
2022-11-11T05:53:31.962Z,99.99
2022-11-11T05:54:31.951Z,99.99
2022-11-11T05:55:31.932Z,99.99
2022-11-11T05:56:31.938Z,99.99
2022-11-11T05:57:31.927Z,99.99
2022-11-11T05:58:31.914Z,99.99
2022-11-11T05:59:31.903Z,99.99
2022-11-11T06:00:31.905Z,99.99
2022-11-11T06:01:31.963Z,99.99
2022-11-11T06:02:31.963Z,99.99
2022-11-11T06:03:31.847Z,99.99
2022-11-11T06:04:31.874Z,99.99
2022-11-11T06:05:31.859Z,99.99
2022-11-11T06:06:31.855Z,99.99
2022-11-11T06:07:31.798Z,99.99
2022-11-11T06:08:31.799Z,99.99
2022-11-11T06:09:31.773Z,99.99
2022-11-11T06:10:31.794Z,99.99
2022-11-11T06:11:32.964Z,99.99
2022-11-11T06:12:31.737Z,99.99
2022-11-11T06:13:31.765Z,99.99
2022-11-11T06:14:31.751Z,99.99
2022-11-11T06:15:31.714Z,99.99
2022-11-11T06:16:31.697Z,99.99
2022-11-11T06:17:31.717Z,99.87
2022-11-11T06:18:31.804Z,99.99
2022-11-11T06:19:31.671Z,99.99
2022-11-11T06:20:31.663Z,99.99
2022-11-11T06:21:31.644Z,99.99
2022-11-11T06:22:31.660Z,99.97
2022-11-11T06:23:31.659Z,99.99
2022-11-11T06:24:31.637Z,99.99
2022-11-11T06:25:31.612Z,99.99
2022-11-11T06:26:31.590Z,99.99
2022-11-11T06:27:31.580Z,99.99
2022-11-11T06:28:31.611Z,99.99
2022-11-11T06:29:31.577Z,99.99
2022-11-11T06:30:50.795Z,99.97
2022-11-11T06:31:32.558Z,99.99
2022-11-11T06:32:31.543Z,99.99
2022-11-11T06:33:31.530Z,99.99
2022-11-11T06:34:31.614Z,99.99
2022-11-11T06:35:31.521Z,99.99
2022-11-11T06:36:31.484Z,99.99
2022-11-11T06:37:31.485Z,99.99
2022-11-11T06:38:31.532Z,99.99
2022-11-11T06:39:31.477Z,99.99
2022-11-11T06:40:31.512Z,99.99
2022-11-11T06:41:31.442Z,99.99
2022-11-11T06:42:31.418Z,99.99
2022-11-11T06:43:31.410Z,99.99
2022-11-11T06:44:31.434Z,99.99
2022-11-11T06:45:31.398Z,99.99
2022-11-11T06:46:31.380Z,99.99
2022-11-11T06:47:31.392Z,99.99
2022-11-11T06:48:31.357Z,99.99
2022-11-11T06:49:31.372Z,99.99
2022-11-11T06:50:31.445Z,99.99
2022-11-11T06:51:31.369Z,99.99
2022-11-11T06:52:31.333Z,99.99
2022-11-11T06:53:31.303Z,99.99
2022-11-11T06:54:31.319Z,99.99
2022-11-11T06:55:31.292Z,99.99
2022-11-11T06:56:31.275Z,99.99
2022-11-11T06:57:31.260Z,99.99
2022-11-11T06:58:31.272Z,99.99
2022-11-11T06:59:31.257Z,99.99
2022-11-11T07:00:31.305Z,99.99
2022-11-11T07:01:31.322Z,99.99
2022-11-11T07:02:31.285Z,99.99
2022-11-11T07:03:31.211Z,99.99
2022-11-11T07:04:31.185Z,99.99
2022-11-11T07:05:31.200Z,99.99
2022-11-11T07:06:31.256Z,99.99
2022-11-11T07:07:31.189Z,99.99
2022-11-11T07:08:31.146Z,99.99
2022-11-11T07:09:31.131Z,99.87
2022-11-11T07:10:31.114Z,99.99
2022-11-11T07:11:31.111Z,99.99
2022-11-11T07:12:31.096Z,99.99
2022-11-11T07:13:31.535Z,99.99
2022-11-11T07:14:31.078Z,99.99
2022-11-11T07:15:31.132Z,99.99
2022-11-11T07:16:31.044Z,99.99
2022-11-11T07:17:31.035Z,99.99
2022-11-11T07:18:31.017Z,99.99
2022-11-11T07:19:31.047Z,99.93
2022-11-11T07:20:31.001Z,99.99
2022-11-11T07:21:31.059Z,99.99
2022-11-11T07:22:36.930Z,99.82
2022-11-11T07:23:31.985Z,99.72
2022-11-11T07:24:30.983Z,99.99
2022-11-11T07:25:30.978Z,99.99
2022-11-11T07:26:30.936Z,99.99
2022-11-11T07:27:30.953Z,99.99
2022-11-11T07:28:30.919Z,99.99
2022-11-11T07:29:30.951Z,99.99
2022-11-11T07:30:30.951Z,99.99
2022-11-11T07:31:30.898Z,99.99
2022-11-11T07:32:30.899Z,99.99
2022-11-11T07:33:30.857Z,99.99
2022-11-11T07:34:30.837Z,99.72
2022-11-11T07:35:30.883Z,99.99
2022-11-11T07:36:30.823Z,99.67
2022-11-11T07:37:30.812Z,99.67
2022-11-11T07:38:30.915Z,99.62
2022-11-11T07:39:30.792Z,99.88
2022-11-11T07:40:30.791Z,99.67
2022-11-11T07:41:30.803Z,99.77
2022-11-11T07:42:31.848Z,99.99
2022-11-11T07:43:30.756Z,99.47
2022-11-11T07:44:30.738Z,99.37
2022-11-11T07:45:30.828Z,99.57
2022-11-11T07:46:30.737Z,99.37
2022-11-11T07:47:30.841Z,99.16
2022-11-11T07:48:30.702Z,99.37
2022-11-11T07:49:30.743Z,99.16
2022-11-11T07:50:30.776Z,99.05
2022-11-11T07:51:30.693Z,99.05
2022-11-11T07:52:30.651Z,99.37
2022-11-11T07:53:30.725Z,99.05
2022-11-11T07:54:30.849Z,98.96
2022-11-11T07:55:31.388Z,99.05
2022-11-11T07:56:30.664Z,99.16
2022-11-11T07:57:30.641Z,99.26
2022-11-11T07:58:30.582Z,99.05
2022-11-11T07:59:30.587Z,99.11
2022-11-11T08:00:30.569Z,99.16
2022-11-11T08:01:30.658Z,99.01
2022-11-11T08:02:30.561Z,98.85
2022-11-11T08:03:30.561Z,99.01
2022-11-11T08:04:30.513Z,98.80
2022-11-11T08:05:30.531Z,98.80
2022-11-11T08:06:30.533Z,99.01
2022-11-11T08:07:30.579Z,99.21
2022-11-11T08:08:30.487Z,99.11
2022-11-11T08:09:30.470Z,99.07
2022-11-11T08:10:30.561Z,99.01
2022-11-11T08:11:30.446Z,98.60
2022-11-11T08:12:30.461Z,99.11
2022-11-11T08:13:30.431Z,99.07
2022-11-11T08:14:30.405Z,98.76
2022-11-11T08:15:30.451Z,98.14
2022-11-11T08:16:30.417Z,98.25
2022-11-11T08:17:30.379Z,98.39
2022-11-11T08:18:30.383Z,98.66
2022-11-11T08:19:30.378Z,98.25
2022-11-11T08:20:30.377Z,98.04
2022-11-11T08:21:30.330Z,98.14
2022-11-11T08:22:30.316Z,97.94
2022-11-11T08:25:31.293Z,98.30
2022-11-11T08:26:30.392Z,97.28
2022-11-11T08:27:30.262Z,97.48
2022-11-11T08:28:30.258Z,97.69
2022-11-11T08:29:30.263Z,97.79
2022-11-11T08:30:30.245Z,97.48
2022-11-11T08:31:30.230Z,97.38
2022-11-11T08:33:26.484Z,97.23
2022-11-11T08:33:34.430Z,96.92
2022-11-11T08:34:30.234Z,97.13
2022-11-11T08:35:30.192Z,96.92
2022-11-11T08:36:30.176Z,96.72
2022-11-11T08:37:30.161Z,96.72
2022-11-11T08:38:30.158Z,96.62
2022-11-11T08:39:30.179Z,96.20
2022-11-11T08:40:30.139Z,96.25
2022-11-11T08:41:30.129Z,96.00
2022-11-11T08:42:30.241Z,96.20
2022-11-11T08:43:35.586Z,96.31
2022-11-11T08:44:31.108Z,96.20
2022-11-11T08:45:30.084Z,96.00
2022-11-11T08:46:30.120Z,96.20
2022-11-11T08:47:30.053Z,96.10
2022-11-11T08:48:30.074Z,96.10
2022-11-11T08:49:30.046Z,96.31
2022-11-11T08:50:30.019Z,96.41
2022-11-11T08:51:37.070Z,96.31
2022-11-11T08:52:31.015Z,96.31
2022-11-11T08:53:29.989Z,96.26
2022-11-11T08:54:29.975Z,96.26
2022-11-11T08:55:29.982Z,96.37
2022-11-11T08:56:29.953Z,96.16
2022-11-11T08:57:29.940Z,96.06
2022-11-11T08:58:30.066Z,95.54
2022-11-11T08:59:29.931Z,95.54
2022-11-11T09:00:29.928Z,95.75
2022-11-11T09:01:29.950Z,95.61
2022-11-11T09:02:29.882Z,95.50
2022-11-11T09:03:29.896Z,94.78
2022-11-11T09:04:46.977Z,94.78
2022-11-11T09:05:30.854Z,94.78
2022-11-11T09:06:29.859Z,94.78
2022-11-11T09:07:29.840Z,94.78
2022-11-11T09:08:29.834Z,94.37
2022-11-11T09:09:29.837Z,93.96
2022-11-11T09:10:29.807Z,94.43
2022-11-11T09:11:29.818Z,94.33
2022-11-11T09:12:29.784Z,93.82
2022-11-11T09:13:29.805Z,93.37
2022-11-11T09:14:29.879Z,93.77
2022-11-11T09:15:29.756Z,93.77
2022-11-11T09:16:29.734Z,93.67
2022-11-11T09:17:29.727Z,93.37
2022-11-11T09:18:29.734Z,93.32
2022-11-11T09:19:29.715Z,92.30
2022-11-11T09:20:29.761Z,92.40
2022-11-11T09:21:29.674Z,92.40
2022-11-11T09:22:29.671Z,92.81
2022-11-11T09:23:29.714Z,92.19
2022-11-11T09:24:29.643Z,92.71
2022-11-11T09:25:29.633Z,92.50
2022-11-11T09:26:29.737Z,92.40
2022-11-11T09:27:29.638Z,92.50
2022-11-11T09:28:29.613Z,91.78
2022-11-11T09:29:29.607Z,91.58
2022-11-11T09:30:29.694Z,91.69
2022-11-11T09:31:44.067Z,92.14
2022-11-11T09:32:30.601Z,91.78
2022-11-11T09:33:29.552Z,91.69
2022-11-11T09:34:29.578Z,91.27
2022-11-11T09:35:29.539Z,91.78
2022-11-11T09:36:29.511Z,91.78
2022-11-11T09:37:29.512Z,90.36
2022-11-11T09:38:29.503Z,91.74
2022-11-11T09:39:29.505Z,91.33
2022-11-11T09:40:29.500Z,90.82
2022-11-11T09:41:29.503Z,90.52
2022-11-11T09:42:29.444Z,90.52
2022-11-11T09:43:29.435Z,90.31
2022-11-11T09:44:29.422Z,90.62
2022-11-11T09:45:29.408Z,90.31
2022-11-11T09:46:29.524Z,90.21
2022-11-11T09:47:29.437Z,90.62
2022-11-11T09:48:29.399Z,90.41
2022-11-11T09:49:29.361Z,90.52
2022-11-11T09:50:29.360Z,90.41
2022-11-11T09:51:29.368Z,90.47
2022-11-11T09:52:29.343Z,89.90
2022-11-11T09:53:29.338Z,89.86
2022-11-11T09:54:29.330Z,89.76
2022-11-11T09:55:29.311Z,89.76
2022-11-11T09:56:31.858Z,90.06
2022-11-11T09:57:29.275Z,89.51
2022-11-11T09:58:29.288Z,89.72
2022-11-11T09:59:29.288Z,88.79
2022-11-11T10:00:29.255Z,89.00
2022-11-11T10:01:29.313Z,89.26
2022-11-11T10:02:29.335Z,87.73
2022-11-11T10:03:29.217Z,87.53
2022-11-11T10:04:29.205Z,87.84
2022-11-11T10:05:29.246Z,87.94
2022-11-11T10:06:29.210Z,87.26
2022-11-11T10:07:29.217Z,87.23
2022-11-11T10:08:29.163Z,87.73
2022-11-11T10:09:29.209Z,88.04
2022-11-11T10:10:29.152Z,87.53
2022-11-11T10:11:29.129Z,87.53
2022-11-11T10:12:29.143Z,87.12
2022-11-11T10:13:29.143Z,86.82
2022-11-11T10:14:29.143Z,87.32
2022-11-11T10:15:29.082Z,87.59
2022-11-11T10:16:29.091Z,87.49
2022-11-11T10:17:29.085Z,86.26
2022-11-11T10:18:29.493Z,86.88
2022-11-11T10:19:29.041Z,86.98
2022-11-11T10:20:29.049Z,87.12
2022-11-11T10:21:31.249Z,86.91
2022-11-11T10:22:30.031Z,86.98
2022-11-11T10:23:29.016Z,86.88
2022-11-11T10:24:28.986Z,86.47
2022-11-11T10:25:29.003Z,87.18
2022-11-11T10:26:28.972Z,86.88
2022-11-11T10:27:28.982Z,87.14
2022-11-11T10:28:28.939Z,86.83
2022-11-11T10:29:28.940Z,86.02
2022-11-11T10:30:31.829Z,86.83
2022-11-11T10:31:28.917Z,86.02
2022-11-11T10:32:28.894Z,85.61
2022-11-11T10:33:28.888Z,85.41
2022-11-11T10:34:28.994Z,85.51
2022-11-11T10:35:28.881Z,85.61
2022-11-11T10:36:31.720Z,85.82
2022-11-11T10:37:28.846Z,85.30
2022-11-11T10:38:28.854Z,85.61
2022-11-11T10:39:28.835Z,85.55
2022-11-11T10:40:28.824Z,85.65
2022-11-11T10:41:28.846Z,85.82
2022-11-11T10:42:28.787Z,85.61
2022-11-11T10:43:28.782Z,85.77
2022-11-11T10:44:28.793Z,85.57
2022-11-11T10:45:28.847Z,85.27
2022-11-11T10:46:28.743Z,85.37
2022-11-11T10:47:28.741Z,85.77
2022-11-11T10:48:28.735Z,85.33
2022-11-11T10:49:28.732Z,84.34
2022-11-11T10:50:28.821Z,84.34
2022-11-11T10:51:28.711Z,84.66
2022-11-11T10:52:28.688Z,84.61
2022-11-11T10:53:28.667Z,84.51
2022-11-11T10:54:28.660Z,84.92
2022-11-11T10:55:28.674Z,83.29
2022-11-11T10:56:28.637Z,83.39
2022-11-11T10:57:28.630Z,83.29
2022-11-11T10:58:28.613Z,84.11
2022-11-11T10:59:28.620Z,83.73
2022-11-11T11:00:28.593Z,85.06
2022-11-11T11:01:28.624Z,84.61
2022-11-11T11:02:28.583Z,84.66
2022-11-11T11:03:28.550Z,84.66
2022-11-11T11:04:28.573Z,84.31
2022-11-11T11:05:28.554Z,84.51
2022-11-11T11:06:31.526Z,84.41
2022-11-11T11:07:28.512Z,84.31
2022-11-11T11:08:28.529Z,84.41
2022-11-11T11:09:28.505Z,83.90
2022-11-11T11:10:28.487Z,83.70
2022-11-11T11:11:28.484Z,83.59
2022-11-11T11:12:28.460Z,83.49
2022-11-11T11:13:28.445Z,83.94
2022-11-11T11:14:28.434Z,83.94
2022-11-11T11:15:28.467Z,83.12
2022-11-11T11:16:28.416Z,83.33
2022-11-11T11:17:28.401Z,83.23
2022-11-11T11:18:28.420Z,83.53
2022-11-11T11:19:28.375Z,83.53
2022-11-11T11:20:28.397Z,83.70
2022-11-11T11:21:28.370Z,83.84
2022-11-11T11:22:28.452Z,84.41
2022-11-11T11:23:28.337Z,84.00
2022-11-11T11:24:28.324Z,84.04
2022-11-11T11:25:28.362Z,83.73
2022-11-11T11:26:28.297Z,83.73
2022-11-11T11:27:28.319Z,84.04
2022-11-11T11:28:28.277Z,83.94
2022-11-11T11:29:28.260Z,83.43
2022-11-11T11:30:28.256Z,82.98
2022-11-11T11:31:28.273Z,83.84
2022-11-11T11:32:28.241Z,83.53
2022-11-11T11:33:28.240Z,83.63
2022-11-11T11:34:28.212Z,83.59
2022-11-11T11:35:28.214Z,83.70
2022-11-11T11:36:28.192Z,83.39
2022-11-11T11:37:28.201Z,83.70
2022-11-11T11:38:28.280Z,83.59
2022-11-11T11:39:28.170Z,83.43
2022-11-11T11:40:28.144Z,83.73
2022-11-11T11:41:28.133Z,84.00
2022-11-11T11:42:28.147Z,83.39
2022-11-11T11:43:28.118Z,83.43
2022-11-11T11:44:28.108Z,83.84
2022-11-11T11:45:28.091Z,84.00
2022-11-11T11:46:28.091Z,83.29
2022-11-11T11:47:28.085Z,83.80
2022-11-11T11:48:32.167Z,83.90
2022-11-11T11:49:28.066Z,83.80
2022-11-11T11:50:28.053Z,84.11
2022-11-11T11:51:28.040Z,84.11
2022-11-11T11:52:28.058Z,83.80
2022-11-11T11:53:28.007Z,83.45
2022-11-11T11:54:28.121Z,83.59
2022-11-11T11:55:27.982Z,83.18
2022-11-11T11:56:27.973Z,83.49
2022-11-11T11:57:27.971Z,83.39
2022-11-11T11:58:28.377Z,83.49
2022-11-11T11:59:27.948Z,83.59
2022-11-11T12:00:27.942Z,83.59
2022-11-11T12:01:27.929Z,83.39
2022-11-11T12:02:27.965Z,83.49
2022-11-11T12:03:27.916Z,83.59
2022-11-11T12:04:27.880Z,83.59
2022-11-11T12:05:27.873Z,83.90
2022-11-11T12:06:27.856Z,83.90
2022-11-11T12:07:27.848Z,83.04
2022-11-11T12:08:27.980Z,83.70
2022-11-11T12:09:27.836Z,83.70
2022-11-11T12:10:27.939Z,82.68
2022-11-11T12:11:27.803Z,82.94
2022-11-11T12:12:27.817Z,82.84
2022-11-11T12:13:27.781Z,83.04
2022-11-11T12:14:27.777Z,83.65
2022-11-11T12:15:27.757Z,83.29
2022-11-11T12:16:27.745Z,82.64
2022-11-11T12:17:27.738Z,82.84
2022-11-11T12:18:27.863Z,82.64
2022-11-11T12:19:27.713Z,82.74
2022-11-11T12:20:27.721Z,83.04
2022-11-11T12:21:27.695Z,83.15
2022-11-11T12:22:27.679Z,83.04
2022-11-11T12:23:27.673Z,82.84
2022-11-11T12:24:27.676Z,82.64
2022-11-11T12:25:27.664Z,82.74
2022-11-11T12:26:27.739Z,82.54
2022-11-11T12:27:27.624Z,82.50
2022-11-11T12:28:27.747Z,83.01
2022-11-11T12:29:27.629Z,83.92
2022-11-11T12:30:27.588Z,82.80
2022-11-11T12:31:27.581Z,83.42
2022-11-11T12:32:27.597Z,82.90
2022-11-11T12:33:27.574Z,82.80
2022-11-11T12:34:27.550Z,82.80
2022-11-11T12:35:27.534Z,82.09
2022-11-11T12:36:27.541Z,82.19
2022-11-11T12:37:27.510Z,82.70
2022-11-11T12:38:27.933Z,82.90
2022-11-11T12:39:27.507Z,82.90
2022-11-11T12:40:27.475Z,83.11
2022-11-11T12:41:27.468Z,82.80
2022-11-11T12:42:27.584Z,82.19
2022-11-11T12:43:27.811Z,81.68
2022-11-11T12:44:27.463Z,82.29
2022-11-11T12:45:27.462Z,82.19
2022-11-11T12:46:27.414Z,81.99
2022-11-11T12:47:27.406Z,82.19
2022-11-11T12:48:27.400Z,81.48
2022-11-11T12:49:27.403Z,81.54
2022-11-11T12:50:27.396Z,81.74
2022-11-11T12:51:27.363Z,81.54
2022-11-11T12:52:27.346Z,81.65
2022-11-11T12:53:27.654Z,81.74
2022-11-11T12:54:27.347Z,80.73
2022-11-11T12:55:27.327Z,80.83
2022-11-11T12:56:27.306Z,80.73
2022-11-11T12:57:27.295Z,81.34
2022-11-11T12:58:27.431Z,81.24
2022-11-11T12:59:27.289Z,80.63
2022-11-11T13:00:27.260Z,80.63
2022-11-11T13:01:27.303Z,80.73
2022-11-11T13:02:27.259Z,81.13
2022-11-11T13:03:27.695Z,80.73
2022-11-11T13:04:27.259Z,81.04
2022-11-11T13:05:27.231Z,80.63
2022-11-11T13:06:27.194Z,81.30
2022-11-11T13:07:32.351Z,80.59
2022-11-11T13:08:28.171Z,81.20
2022-11-11T13:09:27.159Z,81.04
2022-11-11T13:10:27.169Z,80.73
2022-11-11T13:11:27.141Z,81.13
2022-11-11T13:12:27.127Z,81.04
2022-11-11T13:13:27.435Z,80.83
2022-11-11T13:14:27.215Z,80.42
2022-11-11T13:15:27.116Z,80.83
2022-11-11T13:16:27.084Z,80.52
2022-11-11T13:17:27.080Z,80.38
2022-11-11T13:18:27.072Z,81.04
2022-11-11T13:19:27.051Z,80.93
2022-11-11T13:20:27.040Z,81.04
2022-11-11T13:21:27.057Z,80.93
2022-11-11T13:22:27.019Z,80.83
2022-11-11T13:23:27.365Z,80.69
2022-11-11T13:24:26.999Z,80.38
2022-11-11T13:25:26.979Z,80.52
2022-11-11T13:26:26.977Z,79.98
2022-11-11T13:27:26.994Z,80.11
2022-11-11T13:28:26.970Z,80.49
2022-11-11T13:29:26.944Z,80.59
2022-11-11T13:30:27.047Z,80.42
2022-11-11T13:31:26.919Z,80.49
2022-11-11T13:32:26.926Z,80.52
2022-11-11T13:33:27.438Z,80.90
2022-11-11T13:34:26.892Z,80.49
2022-11-11T13:35:26.927Z,80.38
2022-11-11T13:36:26.863Z,80.99
2022-11-11T13:37:26.861Z,80.38
2022-11-11T13:38:26.851Z,80.38
2022-11-11T13:39:26.835Z,80.79
2022-11-11T13:40:26.854Z,80.59
2022-11-11T13:41:26.852Z,80.93
2022-11-11T13:42:26.790Z,80.69
2022-11-11T13:43:27.229Z,80.99
2022-11-11T13:44:26.803Z,80.29
2022-11-11T13:45:26.772Z,81.10
2022-11-11T13:46:26.864Z,80.90
2022-11-11T13:47:26.764Z,80.79
2022-11-11T13:48:26.736Z,80.69
2022-11-11T13:49:26.744Z,80.59
2022-11-11T13:50:26.718Z,80.99
2022-11-11T13:51:26.696Z,80.38
2022-11-11T13:52:28.143Z,80.69
2022-11-11T13:53:27.232Z,80.59
2022-11-11T13:54:26.706Z,80.29
2022-11-11T13:55:26.662Z,80.08
2022-11-11T13:56:26.675Z,80.59
2022-11-11T13:57:26.641Z,80.49
2022-11-11T13:58:26.631Z,79.77
2022-11-11T13:59:26.622Z,80.59
2022-11-11T14:00:26.653Z,80.49
2022-11-11T14:01:26.645Z,79.77
2022-11-11T14:02:26.713Z,79.77
2022-11-11T14:03:26.912Z,80.90
2022-11-11T14:04:26.563Z,80.59
2022-11-11T14:05:26.553Z,80.49
2022-11-11T14:06:26.558Z,80.38
2022-11-11T14:07:26.568Z,79.68
2022-11-11T14:08:26.519Z,80.29
2022-11-11T14:09:26.523Z,80.18
2022-11-11T14:10:26.510Z,80.08
2022-11-11T14:11:26.491Z,80.18
2022-11-11T14:12:26.543Z,79.47
2022-11-11T14:13:26.942Z,79.77
2022-11-11T14:14:26.491Z,80.59
2022-11-11T14:15:26.438Z,79.88
2022-11-11T14:16:26.450Z,79.98
2022-11-11T14:17:26.417Z,79.98
2022-11-11T14:18:26.516Z,80.38
2022-11-11T14:19:26.391Z,80.59
2022-11-11T14:20:26.381Z,80.08
2022-11-11T14:21:26.371Z,80.18
2022-11-11T14:22:26.380Z,80.38
2022-11-11T14:23:26.804Z,80.69
2022-11-11T14:24:26.355Z,80.49
2022-11-11T14:25:26.350Z,80.59
2022-11-11T14:26:26.368Z,80.38
2022-11-11T14:27:26.350Z,80.83
2022-11-11T14:28:26.311Z,80.99
2022-11-11T14:29:26.291Z,80.90
2022-11-11T14:30:26.300Z,80.83
2022-11-11T14:31:26.264Z,80.42
2022-11-11T14:32:26.280Z,80.02
2022-11-11T14:33:26.588Z,80.99
2022-11-11T14:34:26.343Z,80.93
2022-11-11T14:35:26.249Z,80.83
2022-11-11T14:36:26.227Z,79.77
2022-11-11T14:37:26.201Z,80.38
2022-11-11T14:38:26.194Z,80.38
2022-11-11T14:39:26.179Z,80.69
2022-11-11T14:40:26.162Z,80.38
2022-11-11T14:41:26.207Z,80.38
2022-11-11T14:42:26.158Z,80.59
2022-11-11T14:43:26.301Z,80.38
2022-11-11T14:44:26.122Z,80.49
2022-11-11T14:45:26.118Z,80.29
2022-11-11T14:46:26.102Z,79.68
2022-11-11T14:47:26.118Z,80.59
2022-11-11T14:48:26.148Z,80.63
2022-11-11T14:49:26.117Z,79.88
2022-11-11T14:50:26.181Z,80.49
2022-11-11T14:51:26.047Z,80.11
2022-11-11T14:52:26.071Z,80.32
2022-11-11T14:53:26.429Z,80.63
2022-11-11T14:54:26.028Z,80.73
2022-11-11T14:55:25.997Z,79.81
2022-11-11T14:56:25.990Z,80.42
2022-11-11T14:57:25.984Z,80.42
2022-11-11T14:58:25.971Z,80.32
2022-11-11T14:59:25.976Z,80.52
2022-11-11T15:00:25.947Z,80.99
2022-11-11T15:01:25.991Z,80.73
2022-11-11T15:02:25.980Z,80.99
2022-11-11T15:03:26.323Z,80.42
2022-11-11T15:04:25.921Z,81.13
2022-11-11T15:05:25.896Z,80.63
2022-11-11T15:06:26.006Z,81.04
2022-11-11T15:07:25.872Z,81.04
2022-11-11T15:08:25.885Z,80.42
2022-11-11T15:09:25.848Z,81.07
2022-11-11T15:10:25.894Z,81.34
2022-11-11T15:11:25.821Z,81.27
2022-11-11T15:12:25.816Z,81.54
2022-11-11T15:13:26.289Z,81.48
2022-11-11T15:14:25.792Z,81.99
2022-11-11T15:15:25.782Z,81.38
2022-11-11T15:16:25.813Z,81.48
2022-11-11T15:17:25.772Z,81.58
2022-11-11T15:18:25.786Z,81.68
2022-11-11T15:19:25.770Z,82.09
2022-11-11T15:20:25.731Z,81.99
2022-11-11T15:21:25.735Z,82.09
2022-11-11T15:22:25.823Z,82.09
2022-11-11T15:23:26.067Z,82.19
2022-11-11T15:24:25.701Z,81.79
2022-11-11T15:25:25.675Z,81.88
2022-11-11T15:26:25.693Z,81.82
2022-11-11T15:27:25.680Z,81.99
2022-11-11T15:28:25.644Z,82.19
2022-11-11T15:29:25.634Z,82.19
2022-11-11T15:30:25.629Z,82.43
2022-11-11T15:31:25.617Z,82.13
2022-11-11T15:32:25.618Z,82.64
2022-11-11T15:33:26.354Z,83.04
2022-11-11T15:34:25.581Z,82.84
2022-11-11T15:35:25.564Z,82.33
2022-11-11T15:36:25.573Z,83.04
2022-11-11T15:37:25.563Z,82.54
2022-11-11T15:38:25.638Z,82.84
2022-11-11T15:39:25.512Z,82.74
2022-11-11T15:40:25.517Z,82.03
2022-11-11T15:41:28.383Z,82.64
2022-11-11T15:42:25.495Z,82.64
2022-11-11T15:43:25.875Z,83.15
2022-11-11T15:44:25.473Z,83.04
2022-11-11T15:45:25.465Z,82.64
2022-11-11T15:46:25.483Z,83.04
2022-11-11T15:47:28.130Z,82.47
2022-11-11T15:48:26.423Z,82.78
2022-11-11T15:49:25.410Z,82.68
2022-11-11T15:50:25.400Z,83.59
2022-11-11T15:51:25.393Z,82.78
2022-11-11T15:52:25.433Z,82.98
2022-11-11T15:53:25.895Z,82.68
2022-11-11T15:54:25.467Z,83.18
2022-11-11T15:55:25.353Z,82.98
2022-11-11T15:56:25.333Z,82.88
2022-11-11T15:57:25.335Z,83.09
2022-11-11T15:58:25.781Z,83.09
2022-11-11T15:59:25.305Z,82.92
2022-11-11T16:00:25.347Z,83.12
2022-11-11T16:01:25.360Z,83.39
2022-11-11T16:02:28.194Z,83.90
2022-11-11T16:03:25.263Z,83.39
2022-11-11T16:04:54.329Z,83.73
2022-11-11T16:05:26.239Z,83.63
2022-11-11T16:06:25.243Z,83.94
2022-11-11T16:07:25.215Z,83.43
2022-11-11T16:08:25.512Z,83.63
2022-11-11T16:09:25.216Z,83.63
2022-11-11T16:10:25.301Z,83.33
2022-11-11T16:11:25.171Z,83.33
2022-11-11T16:12:25.194Z,83.43
2022-11-11T16:13:25.168Z,83.43
2022-11-11T16:14:25.134Z,83.94
2022-11-11T16:15:25.121Z,83.23
2022-11-11T16:16:25.114Z,83.23
2022-11-11T16:17:25.120Z,83.94
2022-11-11T16:18:25.404Z,83.73
2022-11-11T16:19:25.079Z,83.67
2022-11-11T16:20:25.104Z,83.84
2022-11-11T16:21:25.059Z,83.94
2022-11-11T16:22:25.046Z,83.73
2022-11-11T16:23:25.456Z,83.23
2022-11-11T16:24:25.024Z,83.33
2022-11-11T16:25:25.069Z,83.94
2022-11-11T16:26:25.132Z,83.63
2022-11-11T16:27:25.003Z,83.63
2022-11-11T16:28:24.981Z,83.94
2022-11-11T16:29:24.989Z,83.53
2022-11-11T16:30:24.996Z,83.94
2022-11-11T16:31:24.953Z,83.12
2022-11-11T16:32:24.936Z,83.43
2022-11-11T16:33:25.226Z,83.33
2022-11-11T16:34:24.917Z,83.23
2022-11-11T16:35:24.921Z,83.43
2022-11-11T16:36:24.887Z,83.37
2022-11-11T16:37:24.874Z,83.73
2022-11-11T16:38:24.874Z,83.63
2022-11-11T16:39:24.867Z,83.47
2022-11-11T16:40:24.876Z,83.78
2022-11-11T16:41:24.854Z,84.18
2022-11-11T16:42:24.939Z,83.78
2022-11-11T16:43:25.239Z,83.87
2022-11-11T16:44:24.816Z,83.98
2022-11-11T16:45:24.794Z,83.87
2022-11-11T16:46:24.776Z,84.28
2022-11-11T16:47:24.784Z,83.57
2022-11-11T16:48:24.764Z,83.78
2022-11-11T16:49:24.752Z,83.98
2022-11-11T16:50:24.743Z,83.78
2022-11-11T16:51:24.754Z,83.67
2022-11-11T16:52:24.727Z,83.78
2022-11-11T16:53:24.982Z,83.98
2022-11-11T16:54:24.724Z,83.57
2022-11-11T16:55:24.684Z,83.78
2022-11-11T16:56:24.690Z,83.67
2022-11-11T16:57:24.664Z,83.67
2022-11-11T16:58:24.759Z,83.78
2022-11-11T16:59:24.662Z,83.37
2022-11-11T17:00:24.671Z,83.67
2022-11-11T17:01:24.667Z,83.26
2022-11-11T17:02:24.599Z,83.61
2022-11-11T17:03:24.887Z,83.57
2022-11-11T17:04:24.593Z,83.26
2022-11-11T17:05:24.594Z,83.37
2022-11-11T17:06:24.600Z,83.51
2022-11-11T17:07:24.587Z,83.71
2022-11-11T17:08:24.554Z,83.51
2022-11-11T17:09:24.535Z,83.71
2022-11-11T17:10:24.511Z,83.71
2022-11-11T17:11:24.566Z,83.51
2022-11-11T17:12:24.515Z,83.20
2022-11-11T17:13:24.850Z,83.81
2022-11-11T17:14:24.583Z,83.71
2022-11-11T17:15:24.465Z,83.30
2022-11-11T17:16:24.451Z,84.12
2022-11-11T17:17:24.473Z,83.61
2022-11-11T17:18:24.447Z,83.75
2022-11-11T17:19:24.415Z,83.81
2022-11-11T17:20:24.427Z,84.01
2022-11-11T17:21:24.419Z,83.04
2022-11-11T17:22:24.428Z,83.04
2022-11-11T17:23:24.679Z,83.30
2022-11-11T17:24:24.395Z,83.30
2022-11-11T17:25:24.358Z,83.51
2022-11-11T17:26:24.346Z,83.34
2022-11-11T17:27:24.347Z,83.00
2022-11-11T17:28:24.344Z,83.10
2022-11-11T17:29:24.329Z,82.79
2022-11-11T17:30:24.407Z,83.14
2022-11-11T17:31:24.310Z,83.10
2022-11-11T17:32:24.289Z,82.59
2022-11-11T17:33:24.589Z,82.69
2022-11-11T17:34:24.275Z,82.69
2022-11-11T17:35:24.257Z,83.04
2022-11-11T17:36:24.360Z,82.73
2022-11-11T17:37:24.225Z,82.83
2022-11-11T17:38:24.226Z,82.22
2022-11-11T17:39:24.208Z,83.04
2022-11-11T17:40:24.228Z,82.73
2022-11-11T17:41:24.232Z,82.08
2022-11-11T17:42:24.171Z,82.22
2022-11-11T17:43:24.506Z,83.24
2022-11-11T17:44:24.153Z,82.83
2022-11-11T17:45:24.158Z,82.53
2022-11-11T17:46:24.270Z,82.22
2022-11-11T17:47:24.120Z,82.32
2022-11-11T17:48:24.107Z,82.53
2022-11-11T17:49:50.123Z,81.71
2022-11-11T17:50:25.081Z,82.63
2022-11-11T17:51:24.086Z,82.63
2022-11-11T17:52:24.073Z,82.32
2022-11-11T17:53:24.129Z,82.22
2022-11-11T17:54:24.038Z,81.98
2022-11-11T17:55:24.092Z,82.28
2022-11-11T17:56:24.011Z,82.28
2022-11-11T17:57:24.000Z,82.39
2022-11-11T17:58:24.017Z,82.39
2022-11-11T17:59:24.008Z,82.49
2022-11-11T18:00:23.967Z,82.32
2022-11-11T18:01:24.018Z,82.12
2022-11-11T18:02:24.098Z,82.63
2022-11-11T18:03:24.374Z,82.42
2022-11-11T18:04:23.963Z,82.73
2022-11-11T18:05:23.970Z,82.53
2022-11-11T18:06:23.905Z,83.04
2022-11-11T18:07:23.967Z,82.93
2022-11-11T18:08:23.883Z,83.24
2022-11-11T18:09:23.873Z,82.93
2022-11-11T18:10:23.867Z,82.83
2022-11-11T18:11:23.922Z,83.24
2022-11-11T18:12:23.843Z,82.83
2022-11-11T18:13:24.239Z,82.93
2022-11-11T18:14:23.816Z,83.14
2022-11-11T18:15:23.811Z,83.14
2022-11-11T18:16:23.808Z,83.34
2022-11-11T18:17:23.795Z,83.24
2022-11-11T18:18:23.887Z,83.04
2022-11-11T18:19:23.777Z,82.93
2022-11-11T18:20:23.767Z,84.09
2022-11-11T18:21:23.758Z,84.00
2022-11-11T18:22:23.729Z,83.79
2022-11-11T18:23:24.005Z,84.00
2022-11-11T18:24:23.708Z,83.89